sensor_id;sensor_type;location;lat;lon;timestamp;pressure;altitude;pressure_sealevel;temperature;humidity
60820;BME280;46641;48.904;9.126;2024-02-28T00:02:48;98575.25;;;13.23;58.52
60820;BME280;46641;48.904;9.126;2024-02-28T00:07:39;98567.34;;;13.23;58.94
60820;BME280;46641;48.904;9.126;2024-02-28T00:12:29;98567.50;;;13.21;58.72
60820;BME280;46641;48.904;9.126;2024-02-28T00:17:19;98566.38;;;13.24;58.55
60820;BME280;46641;48.904;9.126;2024-02-28T00:22:09;98573.28;;;13.25;59.04
60820;BME280;46641;48.904;9.126;2024-02-28T00:27:00;98573.13;;;13.26;58.80
60820;BME280;46641;48.904;9.126;2024-02-28T00:31:50;98572.31;;;13.26;58.13
60820;BME280;46641;48.904;9.126;2024-02-28T00:36:41;98587.38;;;13.24;58.82
60820;BME280;46641;48.904;9.126;2024-02-28T00:41:32;98586.44;;;13.25;59.35
60820;BME280;46641;48.904;9.126;2024-02-28T00:46:22;98586.09;;;13.28;59.09
60820;BME280;46641;48.904;9.126;2024-02-28T00:51:12;98592.84;;;13.30;59.12
60820;BME280;46641;48.904;9.126;2024-02-28T00:56:03;98594.34;;;13.33;58.91
60820;BME280;46641;48.904;9.126;2024-02-28T01:00:54;98586.78;;;13.30;59.44
60820;BME280;46641;48.904;9.126;2024-02-28T01:05:44;98594.81;;;13.28;59.49
60820;BME280;46641;48.904;9.126;2024-02-28T01:10:34;98594.47;;;13.23;59.63
60820;BME280;46641;48.904;9.126;2024-02-28T01:15:25;98594.09;;;13.18;59.58
60820;BME280;46641;48.904;9.126;2024-02-28T01:20:15;98595.25;;;13.16;60.06
60820;BME280;46641;48.904;9.126;2024-02-28T01:25:05;98599.88;;;13.14;59.57
60820;BME280;46641;48.904;9.126;2024-02-28T01:29:56;98601.16;;;13.09;59.83
60820;BME280;46641;48.904;9.126;2024-02-28T01:34:47;98597.06;;;13.07;59.90
60820;BME280;46641;48.904;9.126;2024-02-28T01:39:37;98599.69;;;13.07;59.84
60820;BME280;46641;48.904;9.126;2024-02-28T01:44:27;98600.66;;;13.06;59.83
60820;BME280;46641;48.904;9.126;2024-02-28T01:49:18;98600.50;;;13.07;59.90
60820;BME280;46641;48.904;9.126;2024-02-28T01:54:10;98602.94;;;13.09;60.11
60820;BME280;46641;48.904;9.126;2024-02-28T01:59:00;98603.94;;;13.08;60.00
60820;BME280;46641;48.904;9.126;2024-02-28T02:03:51;98613.47;;;13.09;59.96
60820;BME280;46641;48.904;9.126;2024-02-28T02:08:42;98615.28;;;13.08;60.12
60820;BME280;46641;48.904;9.126;2024-02-28T02:13:33;98621.19;;;13.10;60.15
60820;BME280;46641;48.904;9.126;2024-02-28T02:18:25;98621.03;;;13.12;60.16
60820;BME280;46641;48.904;9.126;2024-02-28T02:23:16;98626.59;;;13.09;60.19
60820;BME280;46641;48.904;9.126;2024-02-28T02:28:06;98632.69;;;13.09;60.13
60820;BME280;46641;48.904;9.126;2024-02-28T02:32:56;98639.59;;;13.10;60.11
60820;BME280;46641;48.904;9.126;2024-02-28T02:37:47;98658.13;;;13.09;59.82
60820;BME280;46641;48.904;9.126;2024-02-28T02:42:38;98644.84;;;13.10;60.43
60820;BME280;46641;48.904;9.126;2024-02-28T02:47:28;98668.00;;;13.07;60.03
60820;BME280;46641;48.904;9.126;2024-02-28T02:52:19;98671.75;;;13.04;60.36
60820;BME280;46641;48.904;9.126;2024-02-28T02:57:09;98671.09;;;13.02;60.38
60820;BME280;46641;48.904;9.126;2024-02-28T03:01:59;98684.53;;;12.99;60.32
60820;BME280;46641;48.904;9.126;2024-02-28T03:06:50;98674.34;;;12.96;60.49
60820;BME280;46641;48.904;9.126;2024-02-28T03:11:40;98685.16;;;12.93;60.95
60820;BME280;46641;48.904;9.126;2024-02-28T03:16:30;98690.41;;;12.93;60.68
60820;BME280;46641;48.904;9.126;2024-02-28T03:21:21;98692.09;;;12.94;60.73
60820;BME280;46641;48.904;9.126;2024-02-28T03:26:11;98704.22;;;12.95;60.79
60820;BME280;46641;48.904;9.126;2024-02-28T03:31:01;98712.94;;;12.96;60.83
60820;BME280;46641;48.904;9.126;2024-02-28T03:35:52;98727.88;;;12.95;61.09
60820;BME280;46641;48.904;9.126;2024-02-28T03:40:42;98718.19;;;12.96;60.70
60820;BME280;46641;48.904;9.126;2024-02-28T03:45:37;98726.06;;;12.96;60.48
60820;BME280;46641;48.904;9.126;2024-02-28T03:50:27;98737.41;;;12.96;60.93
60820;BME280;46641;48.904;9.126;2024-02-28T03:55:18;98750.53;;;12.96;60.92
60820;BME280;46641;48.904;9.126;2024-02-28T04:00:09;98758.41;;;12.96;60.81
60820;BME280;46641;48.904;9.126;2024-02-28T04:05:00;98758.41;;;12.96;61.05
60820;BME280;46641;48.904;9.126;2024-02-28T04:09:50;98760.53;;;12.93;60.97
60820;BME280;46641;48.904;9.126;2024-02-28T04:14:40;98766.59;;;12.93;60.95
60820;BME280;46641;48.904;9.126;2024-02-28T04:19:34;98780.72;;;12.92;60.74
60820;BME280;46641;48.904;9.126;2024-02-28T04:24:27;98780.06;;;12.90;60.98
60820;BME280;46641;48.904;9.126;2024-02-28T04:29:17;98768.72;;;12.90;60.99
60820;BME280;46641;48.904;9.126;2024-02-28T04:34:08;98766.28;;;12.88;61.05
60820;BME280;46641;48.904;9.126;2024-02-28T04:38:58;98776.91;;;12.86;61.36
60820;BME280;46641;48.904;9.126;2024-02-28T04:43:48;98780.69;;;12.84;61.40
60820;BME280;46641;48.904;9.126;2024-02-28T04:48:38;98791.22;;;12.84;61.24
60820;BME280;46641;48.904;9.126;2024-02-28T04:53:29;98792.84;;;12.85;61.23
60820;BME280;46641;48.904;9.126;2024-02-28T04:58:19;98791.22;;;12.84;61.19
60820;BME280;46641;48.904;9.126;2024-02-28T05:03:09;98792.03;;;12.84;61.47
60820;BME280;46641;48.904;9.126;2024-02-28T05:08:00;98801.03;;;12.82;61.44
60820;BME280;46641;48.904;9.126;2024-02-28T05:12:50;98794.28;;;12.79;61.18
60820;BME280;46641;48.904;9.126;2024-02-28T05:17:41;98808.53;;;12.77;61.25
60820;BME280;46641;48.904;9.126;2024-02-28T05:22:31;98797.69;;;12.72;61.62
60820;BME280;46641;48.904;9.126;2024-02-28T05:27:21;98800.97;;;12.74;61.79
60820;BME280;46641;48.904;9.126;2024-02-28T05:32:11;98795.88;;;12.72;61.71
60820;BME280;46641;48.904;9.126;2024-02-28T05:37:02;98810.13;;;12.70;61.79
60820;BME280;46641;48.904;9.126;2024-02-28T05:41:53;98813.06;;;12.67;61.67
60820;BME280;46641;48.904;9.126;2024-02-28T05:46:44;98818.63;;;12.63;61.92
60820;BME280;46641;48.904;9.126;2024-02-28T05:51:34;98812.41;;;12.65;61.98
60820;BME280;46641;48.904;9.126;2024-02-28T05:56:25;98817.50;;;12.66;62.01
60820;BME280;46641;48.904;9.126;2024-02-28T06:01:16;98817.81;;;12.63;61.80
60820;BME280;46641;48.904;9.126;2024-02-28T06:06:07;98832.75;;;12.62;62.04
60820;BME280;46641;48.904;9.126;2024-02-28T06:10:57;98834.38;;;12.63;62.05
60820;BME280;46641;48.904;9.126;2024-02-28T06:15:47;98849.47;;;12.61;61.75
60820;BME280;46641;48.904;9.126;2024-02-28T06:20:38;98853.91;;;12.61;61.86
60820;BME280;46641;48.904;9.126;2024-02-28T06:25:28;98854.94;;;11.97;60.08
60820;BME280;46641;48.904;9.126;2024-02-28T06:30:18;98864.94;;;12.29;59.30
60820;BME280;46641;48.904;9.126;2024-02-28T06:35:09;98870.94;;;12.39;59.03
60820;BME280;46641;48.904;9.126;2024-02-28T06:40:00;98885.13;;;12.46;59.24
60820;BME280;46641;48.904;9.126;2024-02-28T06:44:50;98893.38;;;12.51;59.35
60820;BME280;46641;48.904;9.126;2024-02-28T06:49:41;98896.66;;;12.53;59.25
60820;BME280;46641;48.904;9.126;2024-02-28T06:54:31;98897.34;;;12.55;59.87
60820;BME280;46641;48.904;9.126;2024-02-28T06:59:22;98893.03;;;12.54;59.52
60820;BME280;46641;48.904;9.126;2024-02-28T07:04:12;98896.66;;;12.53;59.95
60820;BME280;46641;48.904;9.126;2024-02-28T07:09:02;98906.50;;;12.51;60.07
60820;BME280;46641;48.904;9.126;2024-02-28T07:13:53;98911.75;;;12.51;60.36
60820;BME280;46641;48.904;9.126;2024-02-28T07:18:43;98919.75;;;12.50;60.46
60820;BME280;46641;48.904;9.126;2024-02-28T07:23:33;98930.13;;;12.51;60.43
60820;BME280;46641;48.904;9.126;2024-02-28T07:28:23;98926.53;;;12.52;60.69
60820;BME280;46641;48.904;9.126;2024-02-28T07:33:14;98932.59;;;12.53;60.70
60820;BME280;46641;48.904;9.126;2024-02-28T07:38:04;98948.50;;;12.51;60.71
60820;BME280;46641;48.904;9.126;2024-02-28T07:42:55;98960.94;;;12.49;60.87
60820;BME280;46641;48.904;9.126;2024-02-28T07:47:45;98965.91;;;12.52;60.79
60820;BME280;46641;48.904;9.126;2024-02-28T07:52:35;98967.25;;;12.56;60.70
60820;BME280;46641;48.904;9.126;2024-02-28T07:57:27;98985.50;;;12.58;60.90
60820;BME280;46641;48.904;9.126;2024-02-28T08:02:17;98983.53;;;12.60;60.69
60820;BME280;46641;48.904;9.126;2024-02-28T08:07:10;98994.84;;;12.60;61.09
60820;BME280;46641;48.904;9.126;2024-02-28T08:12:00;98982.72;;;12.59;61.20
60820;BME280;46641;48.904;9.126;2024-02-28T08:16:50;98991.63;;;11.84;59.85
60820;BME280;46641;48.904;9.126;2024-02-28T08:21:40;98988.13;;;12.30;59.38
60820;BME280;46641;48.904;9.126;2024-02-28T08:26:31;98996.88;;;12.49;58.70
60820;BME280;46641;48.904;9.126;2024-02-28T08:31:21;99000.41;;;12.57;59.09
60820;BME280;46641;48.904;9.126;2024-02-28T08:36:11;99005.34;;;12.60;58.93
60820;BME280;46641;48.904;9.126;2024-02-28T08:41:02;98999.81;;;12.63;59.04
60820;BME280;46641;48.904;9.126;2024-02-28T08:45:52;98997.19;;;12.63;59.50
60820;BME280;46641;48.904;9.126;2024-02-28T08:50:44;98990.13;;;12.64;59.59
60820;BME280;46641;48.904;9.126;2024-02-28T08:55:34;98990.13;;;12.64;59.46
60820;BME280;46641;48.904;9.126;2024-02-28T09:00:25;99001.78;;;12.61;59.86
60820;BME280;46641;48.904;9.126;2024-02-28T09:05:15;99005.06;;;12.63;59.91
60820;BME280;46641;48.904;9.126;2024-02-28T09:10:06;99016.38;;;12.64;60.08
60820;BME280;46641;48.904;9.126;2024-02-28T09:14:56;99017.53;;;12.61;60.04
60820;BME280;46641;48.904;9.126;2024-02-28T09:19:48;99013.94;;;12.62;60.15
60820;BME280;46641;48.904;9.126;2024-02-28T09:24:39;99016.38;;;12.64;60.37
60820;BME280;46641;48.904;9.126;2024-02-28T09:29:29;99008.38;;;12.66;60.52
60820;BME280;46641;48.904;9.126;2024-02-28T09:34:19;99008.09;;;12.69;60.52
60820;BME280;46641;48.904;9.126;2024-02-28T09:39:09;99012.50;;;12.68;60.46
60820;BME280;46641;48.904;9.126;2024-02-28T09:44:02;99010.53;;;12.70;60.50
60820;BME280;46641;48.904;9.126;2024-02-28T09:48:54;99011.41;;;12.71;60.30
60820;BME280;46641;48.904;9.126;2024-02-28T09:53:45;99015.38;;;12.75;60.16
60820;BME280;46641;48.904;9.126;2024-02-28T09:58:36;99017.00;;;12.76;60.48
60820;BME280;46641;48.904;9.126;2024-02-28T10:03:28;99018.53;;;12.78;60.84
60820;BME280;46641;48.904;9.126;2024-02-28T10:08:19;99031.50;;;12.80;60.89
60820;BME280;46641;48.904;9.126;2024-02-28T10:13:10;99032.19;;;12.82;60.65
60820;BME280;46641;48.904;9.126;2024-02-28T10:18:00;99028.44;;;12.84;60.76
60820;BME280;46641;48.904;9.126;2024-02-28T10:22:52;99033.69;;;12.84;60.43
60820;BME280;46641;48.904;9.126;2024-02-28T10:27:43;99033.22;;;12.89;60.70
60820;BME280;46641;48.904;9.126;2024-02-28T10:32:34;99047.19;;;12.90;60.83
60820;BME280;46641;48.904;9.126;2024-02-28T10:37:28;99063.47;;;12.93;60.43
60820;BME280;46641;48.904;9.126;2024-02-28T10:42:18;99065.97;;;12.95;60.59
60820;BME280;46641;48.904;9.126;2024-02-28T10:47:13;99066.50;;;12.98;60.25
60820;BME280;46641;48.904;9.126;2024-02-28T10:52:06;99065.22;;;13.02;60.55
60820;BME280;46641;48.904;9.126;2024-02-28T10:56:59;99070.03;;;13.07;60.47
60820;BME280;46641;48.904;9.126;2024-02-28T11:01:50;99085.66;;;13.08;60.45
60820;BME280;46641;48.904;9.126;2024-02-28T11:06:51;99089.78;;;13.11;59.72
60820;BME280;46641;48.904;9.126;2024-02-28T11:11:41;99093.22;;;13.12;60.22
60820;BME280;46641;48.904;9.126;2024-02-28T11:16:33;99091.28;;;13.14;60.07
60820;BME280;46641;48.904;9.126;2024-02-28T11:21:24;99096.56;;;13.14;60.19
60820;BME280;46641;48.904;9.126;2024-02-28T11:26:16;99103.84;;;13.20;60.06
60820;BME280;46641;48.904;9.126;2024-02-28T11:31:08;99095.78;;;13.21;60.01
60820;BME280;46641;48.904;9.126;2024-02-28T11:35:59;99101.59;;;13.25;60.04
60820;BME280;46641;48.904;9.126;2024-02-28T11:40:50;99095.66;;;13.23;60.13
60820;BME280;46641;48.904;9.126;2024-02-28T11:45:40;99091.22;;;13.23;59.96
60820;BME280;46641;48.904;9.126;2024-02-28T11:50:31;99090.13;;;13.26;59.98
60820;BME280;46641;48.904;9.126;2024-02-28T11:55:24;99089.97;;;13.27;60.16
60820;BME280;46641;48.904;9.126;2024-02-28T12:00:15;99079.88;;;13.23;57.68
60820;BME280;46641;48.904;9.126;2024-02-28T12:05:06;99089.09;;;13.09;57.05
60820;BME280;46641;48.904;9.126;2024-02-28T12:09:57;99091.13;;;12.97;56.63
60820;BME280;46641;48.904;9.126;2024-02-28T12:14:47;99091.44;;;12.94;55.88
60820;BME280;46641;48.904;9.126;2024-02-28T12:19:38;99079.72;;;12.61;55.77
60820;BME280;46641;48.904;9.126;2024-02-28T12:24:29;99084.06;;;12.05;57.73
60820;BME280;46641;48.904;9.126;2024-02-28T12:29:19;99078.31;;;12.39;57.01
60820;BME280;46641;48.904;9.126;2024-02-28T12:34:09;99078.94;;;12.51;57.23
60820;BME280;46641;48.904;9.126;2024-02-28T12:38:59;99078.72;;;11.97;57.78
60820;BME280;46641;48.904;9.126;2024-02-28T12:43:50;99068.38;;;12.60;56.42
60820;BME280;46641;48.904;9.126;2024-02-28T12:48:40;99066.56;;;12.89;55.95
60820;BME280;46641;48.904;9.126;2024-02-28T12:53:34;99067.31;;;12.99;56.11
60820;BME280;46641;48.904;9.126;2024-02-28T12:58:24;99052.06;;;13.02;56.30
60820;BME280;46641;48.904;9.126;2024-02-28T13:03:15;99052.59;;;13.06;56.24
60820;BME280;46641;48.904;9.126;2024-02-28T13:08:06;99051.78;;;13.05;56.59
60820;BME280;46641;48.904;9.126;2024-02-28T13:12:56;99042.94;;;13.06;56.66
60820;BME280;46641;48.904;9.126;2024-02-28T13:17:46;99039.31;;;13.07;56.25
60820;BME280;46641;48.904;9.126;2024-02-28T13:22:39;99043.06;;;13.05;56.95
60820;BME280;46641;48.904;9.126;2024-02-28T13:27:29;99049.84;;;13.07;56.78
60820;BME280;46641;48.904;9.126;2024-02-28T13:32:20;99052.31;;;13.09;56.79
60820;BME280;46641;48.904;9.126;2024-02-28T13:37:10;99042.31;;;13.13;57.24
60820;BME280;46641;48.904;9.126;2024-02-28T13:42:01;99034.13;;;13.16;57.16
60820;BME280;46641;48.904;9.126;2024-02-28T13:46:53;99032.88;;;13.20;57.25
60820;BME280;46641;48.904;9.126;2024-02-28T13:51:43;99026.47;;;13.22;57.57
60820;BME280;46641;48.904;9.126;2024-02-28T13:56:34;99030.50;;;13.26;56.67
60820;BME280;46641;48.904;9.126;2024-02-28T14:01:24;99025.06;;;13.28;57.17
60820;BME280;46641;48.904;9.126;2024-02-28T14:06:14;99039.84;;;13.29;57.14
60820;BME280;46641;48.904;9.126;2024-02-28T14:11:05;99023.66;;;13.33;57.73
60820;BME280;46641;48.904;9.126;2024-02-28T14:15:55;99021.53;;;13.37;57.63
60820;BME280;46641;48.904;9.126;2024-02-28T14:20:45;99020.09;;;13.43;57.49
60820;BME280;46641;48.904;9.126;2024-02-28T14:25:36;99029.34;;;13.47;57.72
60820;BME280;46641;48.904;9.126;2024-02-28T14:30:27;99029.72;;;13.52;57.78
60820;BME280;46641;48.904;9.126;2024-02-28T14:35:17;99029.25;;;13.56;57.32
60820;BME280;46641;48.904;9.126;2024-02-28T14:40:08;99014.78;;;13.61;57.29
60820;BME280;46641;48.904;9.126;2024-02-28T14:45:04;99034.72;;;13.63;57.44
60820;BME280;46641;48.904;9.126;2024-02-28T14:49:55;99028.97;;;13.68;57.39
60820;BME280;46641;48.904;9.126;2024-02-28T14:54:45;99027.53;;;13.73;57.72
60820;BME280;46641;48.904;9.126;2024-02-28T14:59:36;99025.41;;;13.77;57.62
60820;BME280;46641;48.904;9.126;2024-02-28T15:04:26;99031.06;;;13.82;57.42
60820;BME280;46641;48.904;9.126;2024-02-28T15:09:16;99022.03;;;13.85;57.87
60820;BME280;46641;48.904;9.126;2024-02-28T15:14:09;99020.88;;;13.87;57.91
60820;BME280;46641;48.904;9.126;2024-02-28T15:19:00;99020.56;;;13.90;57.67
60820;BME280;46641;48.904;9.126;2024-02-28T15:23:50;99025.50;;;13.93;57.76
60820;BME280;46641;48.904;9.126;2024-02-28T15:28:40;99020.13;;;13.95;57.92
60820;BME280;46641;48.904;9.126;2024-02-28T15:33:30;99019.59;;;13.91;58.61
60820;BME280;46641;48.904;9.126;2024-02-28T15:38:21;99009.94;;;13.74;56.30
60820;BME280;46641;48.904;9.126;2024-02-28T15:43:11;99010.03;;;13.64;55.94
60820;BME280;46641;48.904;9.126;2024-02-28T15:48:01;99005.19;;;13.51;55.86
60820;BME280;46641;48.904;9.126;2024-02-28T15:52:52;99009.81;;;13.49;54.92
60820;BME280;46641;48.904;9.126;2024-02-28T15:57:43;99013.88;;;13.44;54.75
60820;BME280;46641;48.904;9.126;2024-02-28T16:02:33;99013.28;;;12.78;55.51
60820;BME280;46641;48.904;9.126;2024-02-28T16:07:25;99023.34;;;13.37;55.02
60820;BME280;46641;48.904;9.126;2024-02-28T16:12:16;99021.56;;;13.63;54.35
60820;BME280;46641;48.904;9.126;2024-02-28T16:17:06;99021.16;;;13.76;54.26
60820;BME280;46641;48.904;9.126;2024-02-28T16:21:57;99033.31;;;13.77;54.34
60820;BME280;46641;48.904;9.126;2024-02-28T16:26:47;99027.41;;;13.75;54.38
60820;BME280;46641;48.904;9.126;2024-02-28T16:31:37;99036.56;;;13.71;55.11
60820;BME280;46641;48.904;9.126;2024-02-28T16:36:28;99027.34;;;13.67;55.60
60820;BME280;46641;48.904;9.126;2024-02-28T16:41:19;99036.53;;;13.63;55.75
60820;BME280;46641;48.904;9.126;2024-02-28T16:46:09;99040.56;;;13.57;56.00
60820;BME280;46641;48.904;9.126;2024-02-28T16:51:00;99041.19;;;13.51;56.24
60820;BME280;46641;48.904;9.126;2024-02-28T16:55:51;99035.41;;;13.47;56.70
60820;BME280;46641;48.904;9.126;2024-02-28T17:00:41;99033.78;;;13.46;56.92
60820;BME280;46641;48.904;9.126;2024-02-28T17:05:32;99045.25;;;13.45;57.06
60820;BME280;46641;48.904;9.126;2024-02-28T17:10:23;99047.06;;;13.45;57.36
60820;BME280;46641;48.904;9.126;2024-02-28T17:15:15;99056.09;;;13.42;57.34
60820;BME280;46641;48.904;9.126;2024-02-28T17:20:07;99064.94;;;13.41;57.46
60820;BME280;46641;48.904;9.126;2024-02-28T17:24:57;99061.50;;;13.41;57.76
60820;BME280;46641;48.904;9.126;2024-02-28T17:29:47;99067.28;;;13.44;57.62
60820;BME280;46641;48.904;9.126;2024-02-28T17:34:37;99066.44;;;13.44;57.85
60820;BME280;46641;48.904;9.126;2024-02-28T17:39:28;99068.41;;;13.42;57.74
60820;BME280;46641;48.904;9.126;2024-02-28T17:44:18;99070.38;;;13.40;57.82
60820;BME280;46641;48.904;9.126;2024-02-28T17:49:09;99085.63;;;13.36;57.87
60820;BME280;46641;48.904;9.126;2024-02-28T17:53:59;99081.47;;;13.33;58.08
60820;BME280;46641;48.904;9.126;2024-02-28T17:58:49;99079.47;;;13.27;58.33
60820;BME280;46641;48.904;9.126;2024-02-28T18:03:40;99085.84;;;13.25;58.31
60820;BME280;46641;48.904;9.126;2024-02-28T18:08:32;99081.66;;;13.22;58.62
60820;BME280;46641;48.904;9.126;2024-02-28T18:13:22;99086.25;;;13.20;58.82
60820;BME280;46641;48.904;9.126;2024-02-28T18:18:12;99085.06;;;13.15;59.07
60820;BME280;46641;48.904;9.126;2024-02-28T18:23:03;99085.22;;;13.13;58.74
60820;BME280;46641;48.904;9.126;2024-02-28T18:27:53;99086.34;;;13.10;58.80
60820;BME280;46641;48.904;9.126;2024-02-28T18:32:43;99077.75;;;13.08;59.23
60820;BME280;46641;48.904;9.126;2024-02-28T18:37:37;99087.63;;;13.06;59.12
60820;BME280;46641;48.904;9.126;2024-02-28T18:42:30;99081.81;;;13.03;59.10
60820;BME280;46641;48.904;9.126;2024-02-28T18:47:20;99076.84;;;13.00;59.58
60820;BME280;46641;48.904;9.126;2024-02-28T18:52:10;99073.41;;;12.99;59.13
60820;BME280;46641;48.904;9.126;2024-02-28T18:57:02;99064.84;;;12.97;59.42
60820;BME280;46641;48.904;9.126;2024-02-28T19:01:53;99056.28;;;12.95;59.77
60820;BME280;46641;48.904;9.126;2024-02-28T19:06:44;99057.41;;;12.93;59.35
60820;BME280;46641;48.904;9.126;2024-02-28T19:11:35;99058.53;;;12.90;59.27
60820;BME280;46641;48.904;9.126;2024-02-28T19:16:25;99060.63;;;12.86;59.30
60820;BME280;46641;48.904;9.126;2024-02-28T19:21:16;99058.16;;;12.85;59.40
60820;BME280;46641;48.904;9.126;2024-02-28T19:26:06;99054.19;;;12.81;59.41
60820;BME280;46641;48.904;9.126;2024-02-28T19:30:56;99061.38;;;12.79;59.75
60820;BME280;46641;48.904;9.126;2024-02-28T19:35:47;99063.31;;;12.77;59.72
60820;BME280;46641;48.904;9.126;2024-02-28T19:40:37;99070.53;;;12.75;59.77
60820;BME280;46641;48.904;9.126;2024-02-28T19:45:28;99051.44;;;12.73;59.63
60820;BME280;46641;48.904;9.126;2024-02-28T19:50:19;99054.38;;;12.70;59.72
60820;BME280;46641;48.904;9.126;2024-02-28T19:55:09;99048.47;;;12.68;59.63
60820;BME280;46641;48.904;9.126;2024-02-28T19:59:59;99040.72;;;12.66;59.85
60820;BME280;46641;48.904;9.126;2024-02-28T20:04:49;99044.63;;;12.62;60.09
60820;BME280;46641;48.904;9.126;2024-02-28T20:09:40;99049.19;;;12.60;59.75
60820;BME280;46641;48.904;9.126;2024-02-28T20:14:33;99040.78;;;12.56;59.94
60820;BME280;46641;48.904;9.126;2024-02-28T20:19:24;99043.69;;;12.53;60.30
60820;BME280;46641;48.904;9.126;2024-02-28T20:24:14;99026.41;;;12.51;60.11
60820;BME280;46641;48.904;9.126;2024-02-28T20:29:04;99034.47;;;12.49;60.14
60820;BME280;46641;48.904;9.126;2024-02-28T20:33:56;99033.09;;;12.45;60.00
60820;BME280;46641;48.904;9.126;2024-02-28T20:38:48;99018.59;;;12.41;60.11
60820;BME280;46641;48.904;9.126;2024-02-28T20:43:38;99020.41;;;12.40;60.22
60820;BME280;46641;48.904;9.126;2024-02-28T20:48:28;99020.03;;;12.35;60.33
60820;BME280;46641;48.904;9.126;2024-02-28T20:53:19;99020.16;;;12.34;60.30
60820;BME280;46641;48.904;9.126;2024-02-28T20:58:10;99023.06;;;12.31;60.52
60820;BME280;46641;48.904;9.126;2024-02-28T21:03:01;99023.22;;;12.29;60.18
60820;BME280;46641;48.904;9.126;2024-02-28T21:07:51;99013.84;;;12.27;60.48
60820;BME280;46641;48.904;9.126;2024-02-28T21:12:42;99019.38;;;12.24;60.54
60820;BME280;46641;48.904;9.126;2024-02-28T21:17:33;99018.84;;;12.20;60.36
60820;BME280;46641;48.904;9.126;2024-02-28T21:22:23;99024.22;;;12.19;60.67
60820;BME280;46641;48.904;9.126;2024-02-28T21:27:14;99025.50;;;12.14;60.61
60820;BME280;46641;48.904;9.126;2024-02-28T21:32:04;99023.97;;;12.12;60.69
60820;BME280;46641;48.904;9.126;2024-02-28T21:36:55;99017.25;;;12.09;60.67
60820;BME280;46641;48.904;9.126;2024-02-28T21:41:45;99012.28;;;12.06;60.83
60820;BME280;46641;48.904;9.126;2024-02-28T21:46:39;99000.41;;;12.02;60.55
60820;BME280;46641;48.904;9.126;2024-02-28T21:51:30;99006.78;;;12.00;60.80
60820;BME280;46641;48.904;9.126;2024-02-28T21:56:20;99007.91;;;11.97;60.92
60820;BME280;46641;48.904;9.126;2024-02-28T22:01:10;99008.88;;;11.96;60.93
60820;BME280;46641;48.904;9.126;2024-02-28T22:06:01;98995.06;;;11.94;60.85
60820;BME280;46641;48.904;9.126;2024-02-28T22:10:51;98991.09;;;11.90;60.74
60820;BME280;46641;48.904;9.126;2024-02-28T22:15:41;98985.16;;;11.88;60.90
60820;BME280;46641;48.904;9.126;2024-02-28T22:20:31;98978.53;;;11.84;61.01
60820;BME280;46641;48.904;9.126;2024-02-28T22:25:22;98982.00;;;11.84;60.96
60820;BME280;46641;48.904;9.126;2024-02-28T22:30:13;98985.69;;;11.82;61.10
60820;BME280;46641;48.904;9.126;2024-02-28T22:35:03;98982.41;;;11.80;61.27
60820;BME280;46641;48.904;9.126;2024-02-28T22:39:55;98964.34;;;11.77;61.26
60820;BME280;46641;48.904;9.126;2024-02-28T22:44:45;98966.28;;;11.75;61.37
60820;BME280;46641;48.904;9.126;2024-02-28T22:49:35;98972.78;;;11.70;61.19
60820;BME280;46641;48.904;9.126;2024-02-28T22:54:26;98974.56;;;11.70;61.32
60820;BME280;46641;48.904;9.126;2024-02-28T22:59:16;98967.66;;;11.69;61.31
60820;BME280;46641;48.904;9.126;2024-02-28T23:04:07;98967.94;;;11.66;61.43
60820;BME280;46641;48.904;9.126;2024-02-28T23:08:57;98962.69;;;11.66;61.43
60820;BME280;46641;48.904;9.126;2024-02-28T23:13:47;98946.44;;;11.62;61.28
60820;BME280;46641;48.904;9.126;2024-02-28T23:18:38;98947.00;;;11.56;61.55
60820;BME280;46641;48.904;9.126;2024-02-28T23:23:29;98929.78;;;11.54;61.67
60820;BME280;46641;48.904;9.126;2024-02-28T23:28:20;98928.00;;;11.54;61.54
60820;BME280;46641;48.904;9.126;2024-02-28T23:33:10;98916.00;;;11.52;61.82
60820;BME280;46641;48.904;9.126;2024-02-28T23:38:02;98913.66;;;11.49;61.76
60820;BME280;46641;48.904;9.126;2024-02-28T23:42:52;98910.34;;;11.46;61.87
60820;BME280;46641;48.904;9.126;2024-02-28T23:47:42;98906.06;;;11.45;61.80
60820;BME280;46641;48.904;9.126;2024-02-28T23:52:33;98900.28;;;11.42;61.76
60820;BME280;46641;48.904;9.126;2024-02-28T23:57:24;98900.41;;;11.40;61.73
